Airfield :







YOU CAN JOIN US ON...

 
LOGIN :

Register | Disclaimer

   EN    FR    IT 

 









Legend :    VFR   Marginal VFR   IFR   Intensive IFR   Very Intensive IFR
Visi :
Ceiling :
>= 8 km
>= 3000ft
5 to 8 km
1000 to 3000 ft
1500m to 5 km
500 to 1000 ft
800 to 1500m
200 to 500 ft
< 800m
< 200 ft
Symbols :   Thunderstorms  Fog  Heavy snow  Heavy precipitations  Wind > 20 kt






- Airport Elevation : 1194 ft


KPSF - Pittsfield Municipal

CURRENT METAR :
  • 170454Z AUTO 06003KT 10SM CLR M08/M15 A3041 RMK AO2 SLP314 T10781150 400171083

EXPIRED METARs :
  • 170354Z AUTO 00000KT 10SM CLR M08/M15 A3042 RMK AO2 SLP321 T10831150
  • 170254Z AUTO 00000KT 10SM CLR M08/M15 A3044 RMK AO2 SLP326 T10781150 58000

TAF KPSF
Valid from the 17 at 00:00 until the 18 at 00:00 UTC


162327Z 1700/1724 00000KT P6SM SKC
FM171700 07008KT P6SM SCT200
FM172000 08010KT P6SM SCT035
FM172200 08009KT P6SM BKN035



MET'MAP, your aeronautical weather chart ! - Copyright ORBIFLY December 2007 - Disclaimer

ORBIFLY MET'MAP TEAM :

Programming & Development : Alexandra Zaïnal
Concept & Development : Baudouin d'Aumeries
Co-Development & Prog : Marc-Olivier Méhu
Technical & hardware support : Manuel Goepfert

Contact : metmap@orbifly.com




SOURCES & CREDITS :

   NOAA